sensor_id;sensor_type;location;lat;lon;timestamp;temperature;humidity
15574;DHT22;7888;46.748;8.102;2022-09-02T00:01:30;20.70;49.50
15574;DHT22;7888;46.748;8.102;2022-09-02T00:04:14;20.60;49.50
15574;DHT22;7888;46.748;8.102;2022-09-02T00:06:43;20.70;49.70
15574;DHT22;7888;46.748;8.102;2022-09-02T00:09:12;20.60;49.50
15574;DHT22;7888;46.748;8.102;2022-09-02T00:11:43;20.60;49.50
15574;DHT22;7888;46.748;8.102;2022-09-02T00:14:14;20.60;49.50
15574;DHT22;7888;46.748;8.102;2022-09-02T00:16:43;20.50;50.00
15574;DHT22;7888;46.748;8.102;2022-09-02T00:19:19;20.50;49.80
15574;DHT22;7888;46.748;8.102;2022-09-02T00:21:47;20.50;49.70
15574;DHT22;7888;46.748;8.102;2022-09-02T00:24:14;20.50;49.80
15574;DHT22;7888;46.748;8.102;2022-09-02T00:26:42;20.50;50.10
15574;DHT22;7888;46.748;8.102;2022-09-02T00:29:09;20.40;50.10
15574;DHT22;7888;46.748;8.102;2022-09-02T00:31:36;20.40;49.80
15574;DHT22;7888;46.748;8.102;2022-09-02T00:34:03;20.40;49.90
15574;DHT22;7888;46.748;8.102;2022-09-02T00:36:30;20.30;49.80
15574;DHT22;7888;46.748;8.102;2022-09-02T00:38:57;20.40;50.10
15574;DHT22;7888;46.748;8.102;2022-09-02T00:41:26;20.30;50.00
15574;DHT22;7888;46.748;8.102;2022-09-02T00:43:57;20.30;50.20
15574;DHT22;7888;46.748;8.102;2022-09-02T00:46:27;20.30;50.20
15574;DHT22;7888;46.748;8.102;2022-09-02T00:51:44;20.20;50.30
15574;DHT22;7888;46.748;8.102;2022-09-02T00:54:19;20.20;50.00
15574;DHT22;7888;46.748;8.102;2022-09-02T00:56:47;20.20;50.20
15574;DHT22;7888;46.748;8.102;2022-09-02T00:59:22;20.20;50.30
15574;DHT22;7888;46.748;8.102;2022-09-02T01:01:51;20.20;50.70
15574;DHT22;7888;46.748;8.102;2022-09-02T01:04:17;20.20;50.40
15574;DHT22;7888;46.748;8.102;2022-09-02T01:06:43;20.10;50.50
15574;DHT22;7888;46.748;8.102;2022-09-02T01:09:13;20.10;50.30
15574;DHT22;7888;46.748;8.102;2022-09-02T01:11:45;20.10;50.80
15574;DHT22;7888;46.748;8.102;2022-09-02T01:14:14;20.00;50.80
15574;DHT22;7888;46.748;8.102;2022-09-02T01:16:50;20.00;50.80
15574;DHT22;7888;46.748;8.102;2022-09-02T01:19:27;20.00;51.30
15574;DHT22;7888;46.748;8.102;2022-09-02T01:22:27;19.90;50.90
15574;DHT22;7888;46.748;8.102;2022-09-02T01:24:57;19.90;51.10
15574;DHT22;7888;46.748;8.102;2022-09-02T01:27:29;19.90;50.90
15574;DHT22;7888;46.748;8.102;2022-09-02T01:29:57;19.90;50.80
15574;DHT22;7888;46.748;8.102;2022-09-02T01:32:25;19.90;50.70
15574;DHT22;7888;46.748;8.102;2022-09-02T01:34:53;19.80;51.00
15574;DHT22;7888;46.748;8.102;2022-09-02T01:37:20;19.80;50.90
15574;DHT22;7888;46.748;8.102;2022-09-02T01:39:47;19.80;51.20
15574;DHT22;7888;46.748;8.102;2022-09-02T01:42:14;19.80;51.10
15574;DHT22;7888;46.748;8.102;2022-09-02T01:44:40;19.80;51.20
15574;DHT22;7888;46.748;8.102;2022-09-02T01:47:11;19.80;51.20
15574;DHT22;7888;46.748;8.102;2022-09-02T01:49:48;19.70;51.40
15574;DHT22;7888;46.748;8.102;2022-09-02T01:52:14;19.70;51.20
15574;DHT22;7888;46.748;8.102;2022-09-02T01:54:41;19.70;51.40
15574;DHT22;7888;46.748;8.102;2022-09-02T01:57:09;19.70;51.40
15574;DHT22;7888;46.748;8.102;2022-09-02T01:59:36;19.70;51.50
15574;DHT22;7888;46.748;8.102;2022-09-02T02:02:02;19.70;51.70
15574;DHT22;7888;46.748;8.102;2022-09-02T02:04:28;19.70;51.70
15574;DHT22;7888;46.748;8.102;2022-09-02T02:06:54;19.60;51.50
15574;DHT22;7888;46.748;8.102;2022-09-02T02:09:20;19.60;51.70
15574;DHT22;7888;46.748;8.102;2022-09-02T02:11:46;19.60;51.60
15574;DHT22;7888;46.748;8.102;2022-09-02T02:14:13;19.60;51.60
15574;DHT22;7888;46.748;8.102;2022-09-02T02:16:39;19.60;51.80
15574;DHT22;7888;46.748;8.102;2022-09-02T02:19:06;19.60;51.80
15574;DHT22;7888;46.748;8.102;2022-09-02T02:21:32;19.60;51.90
15574;DHT22;7888;46.748;8.102;2022-09-02T02:23:58;19.60;51.80
15574;DHT22;7888;46.748;8.102;2022-09-02T02:26:29;19.50;51.70
15574;DHT22;7888;46.748;8.102;2022-09-02T02:28:56;19.50;52.20
15574;DHT22;7888;46.748;8.102;2022-09-02T02:31:22;19.60;52.30
15574;DHT22;7888;46.748;8.102;2022-09-02T02:33:49;19.60;52.50
15574;DHT22;7888;46.748;8.102;2022-09-02T02:36:16;19.60;52.50
15574;DHT22;7888;46.748;8.102;2022-09-02T02:38:42;19.60;52.40
15574;DHT22;7888;46.748;8.102;2022-09-02T02:41:11;19.60;52.30
15574;DHT22;7888;46.748;8.102;2022-09-02T02:43:38;19.50;52.40
15574;DHT22;7888;46.748;8.102;2022-09-02T02:46:06;19.60;52.60
15574;DHT22;7888;46.748;8.102;2022-09-02T02:48:35;19.50;52.50
15574;DHT22;7888;46.748;8.102;2022-09-02T02:51:02;19.50;52.50
15574;DHT22;7888;46.748;8.102;2022-09-02T02:53:28;19.50;52.50
15574;DHT22;7888;46.748;8.102;2022-09-02T02:55:56;19.50;52.50
15574;DHT22;7888;46.748;8.102;2022-09-02T02:58:23;19.50;52.50
15574;DHT22;7888;46.748;8.102;2022-09-02T03:00:49;19.50;52.40
15574;DHT22;7888;46.748;8.102;2022-09-02T03:03:16;19.50;52.70
15574;DHT22;7888;46.748;8.102;2022-09-02T03:05:47;19.50;52.60
15574;DHT22;7888;46.748;8.102;2022-09-02T03:08:16;19.50;52.30
15574;DHT22;7888;46.748;8.102;2022-09-02T03:10:48;19.50;52.70
15574;DHT22;7888;46.748;8.102;2022-09-02T03:13:19;19.50;52.70
15574;DHT22;7888;46.748;8.102;2022-09-02T03:15:49;19.50;52.90
15574;DHT22;7888;46.748;8.102;2022-09-02T03:18:15;19.50;52.80
15574;DHT22;7888;46.748;8.102;2022-09-02T03:20:41;19.50;53.00
15574;DHT22;7888;46.748;8.102;2022-09-02T03:23:08;19.50;53.00
15574;DHT22;7888;46.748;8.102;2022-09-02T03:25:34;19.50;53.10
15574;DHT22;7888;46.748;8.102;2022-09-02T03:28:01;19.50;53.20
15574;DHT22;7888;46.748;8.102;2022-09-02T03:30:29;19.50;53.30
15574;DHT22;7888;46.748;8.102;2022-09-02T03:32:58;19.50;53.30
15574;DHT22;7888;46.748;8.102;2022-09-02T03:35:25;19.50;53.20
15574;DHT22;7888;46.748;8.102;2022-09-02T03:37:52;19.40;53.00
15574;DHT22;7888;46.748;8.102;2022-09-02T03:40:22;19.50;53.20
15574;DHT22;7888;46.748;8.102;2022-09-02T03:42:50;19.40;53.30
15574;DHT22;7888;46.748;8.102;2022-09-02T03:45:17;19.50;53.50
15574;DHT22;7888;46.748;8.102;2022-09-02T03:47:44;19.40;53.40
15574;DHT22;7888;46.748;8.102;2022-09-02T03:50:26;19.40;53.40
15574;DHT22;7888;46.748;8.102;2022-09-02T03:52:54;19.40;53.70
15574;DHT22;7888;46.748;8.102;2022-09-02T03:55:22;19.50;53.40
15574;DHT22;7888;46.748;8.102;2022-09-02T03:57:48;19.40;53.60
15574;DHT22;7888;46.748;8.102;2022-09-02T04:00:16;19.40;53.40
15574;DHT22;7888;46.748;8.102;2022-09-02T04:02:44;19.40;53.60
15574;DHT22;7888;46.748;8.102;2022-09-02T04:05:10;19.40;53.40
15574;DHT22;7888;46.748;8.102;2022-09-02T04:07:38;19.50;53.60
15574;DHT22;7888;46.748;8.102;2022-09-02T04:10:05;19.40;53.80
15574;DHT22;7888;46.748;8.102;2022-09-02T04:12:34;19.40;53.60
15574;DHT22;7888;46.748;8.102;2022-09-02T04:15:03;19.40;53.70
15574;DHT22;7888;46.748;8.102;2022-09-02T04:17:30;19.40;53.90
15574;DHT22;7888;46.748;8.102;2022-09-02T04:19:55;19.50;53.50
15574;DHT22;7888;46.748;8.102;2022-09-02T04:22:21;19.50;53.70
15574;DHT22;7888;46.748;8.102;2022-09-02T04:24:47;19.40;53.80
15574;DHT22;7888;46.748;8.102;2022-09-02T04:27:14;19.50;54.00
15574;DHT22;7888;46.748;8.102;2022-09-02T04:29:40;19.50;54.00
15574;DHT22;7888;46.748;8.102;2022-09-02T04:32:05;19.50;54.00
15574;DHT22;7888;46.748;8.102;2022-09-02T04:34:31;19.50;53.90
15574;DHT22;7888;46.748;8.102;2022-09-02T04:36:57;19.50;54.00
15574;DHT22;7888;46.748;8.102;2022-09-02T04:39:23;19.50;53.90
15574;DHT22;7888;46.748;8.102;2022-09-02T04:41:49;19.50;54.00
15574;DHT22;7888;46.748;8.102;2022-09-02T04:44:15;19.50;54.10
15574;DHT22;7888;46.748;8.102;2022-09-02T04:46:41;19.50;54.20
15574;DHT22;7888;46.748;8.102;2022-09-02T04:49:06;19.50;54.10
15574;DHT22;7888;46.748;8.102;2022-09-02T04:51:33;19.40;54.00
15574;DHT22;7888;46.748;8.102;2022-09-02T04:53:59;19.50;54.10
15574;DHT22;7888;46.748;8.102;2022-09-02T04:56:28;19.40;54.10
15574;DHT22;7888;46.748;8.102;2022-09-02T04:58:56;19.40;53.90
15574;DHT22;7888;46.748;8.102;2022-09-02T05:01:29;19.40;54.00
15574;DHT22;7888;46.748;8.102;2022-09-02T05:03:58;19.40;54.10
15574;DHT22;7888;46.748;8.102;2022-09-02T05:06:26;19.40;53.90
15574;DHT22;7888;46.748;8.102;2022-09-02T05:08:54;19.40;54.20
15574;DHT22;7888;46.748;8.102;2022-09-02T05:11:23;19.40;53.90
15574;DHT22;7888;46.748;8.102;2022-09-02T05:13:53;19.30;54.00
15574;DHT22;7888;46.748;8.102;2022-09-02T05:16:25;19.30;53.60
15574;DHT22;7888;46.748;8.102;2022-09-02T05:18:54;19.40;53.90
15574;DHT22;7888;46.748;8.102;2022-09-02T05:21:21;19.30;53.90
15574;DHT22;7888;46.748;8.102;2022-09-02T05:23:48;19.30;54.00
15574;DHT22;7888;46.748;8.102;2022-09-02T05:26:15;19.30;53.90
15574;DHT22;7888;46.748;8.102;2022-09-02T05:28:42;19.30;54.00
15574;DHT22;7888;46.748;8.102;2022-09-02T05:31:11;19.30;54.10
15574;DHT22;7888;46.748;8.102;2022-09-02T05:33:39;19.30;54.10
15574;DHT22;7888;46.748;8.102;2022-09-02T05:36:12;19.30;53.90
15574;DHT22;7888;46.748;8.102;2022-09-02T05:38:41;19.30;54.30
15574;DHT22;7888;46.748;8.102;2022-09-02T05:41:10;19.30;54.10
15574;DHT22;7888;46.748;8.102;2022-09-02T05:43:41;19.30;54.30
15574;DHT22;7888;46.748;8.102;2022-09-02T05:46:11;19.30;54.40
15574;DHT22;7888;46.748;8.102;2022-09-02T05:48:42;19.30;54.30
15574;DHT22;7888;46.748;8.102;2022-09-02T05:51:29;19.30;54.50
15574;DHT22;7888;46.748;8.102;2022-09-02T05:53:57;19.30;54.60
15574;DHT22;7888;46.748;8.102;2022-09-02T05:56:25;19.30;54.70
15574;DHT22;7888;46.748;8.102;2022-09-02T05:58:53;19.40;54.60
15574;DHT22;7888;46.748;8.102;2022-09-02T06:01:20;19.40;54.60
15574;DHT22;7888;46.748;8.102;2022-09-02T06:03:46;19.40;54.60
15574;DHT22;7888;46.748;8.102;2022-09-02T06:06:13;19.50;54.60
15574;DHT22;7888;46.748;8.102;2022-09-02T06:08:39;19.50;54.70
15574;DHT22;7888;46.748;8.102;2022-09-02T06:11:08;19.50;54.70
15574;DHT22;7888;46.748;8.102;2022-09-02T06:13:39;19.60;54.70
15574;DHT22;7888;46.748;8.102;2022-09-02T06:16:06;19.60;54.70
15574;DHT22;7888;46.748;8.102;2022-09-02T06:18:35;19.70;54.70
15574;DHT22;7888;46.748;8.102;2022-09-02T06:21:02;19.70;54.70
15574;DHT22;7888;46.748;8.102;2022-09-02T06:23:29;19.70;54.80
15574;DHT22;7888;46.748;8.102;2022-09-02T06:25:58;19.80;54.80
15574;DHT22;7888;46.748;8.102;2022-09-02T06:28:24;19.80;54.70
15574;DHT22;7888;46.748;8.102;2022-09-02T06:30:50;19.80;54.80
15574;DHT22;7888;46.748;8.102;2022-09-02T06:33:17;19.90;54.70
15574;DHT22;7888;46.748;8.102;2022-09-02T06:35:44;19.90;54.70
15574;DHT22;7888;46.748;8.102;2022-09-02T06:38:12;20.00;54.60
15574;DHT22;7888;46.748;8.102;2022-09-02T06:40:56;20.00;54.60
15574;DHT22;7888;46.748;8.102;2022-09-02T06:43:22;20.10;54.60
15574;DHT22;7888;46.748;8.102;2022-09-02T06:45:48;20.10;54.40
15574;DHT22;7888;46.748;8.102;2022-09-02T06:48:14;20.20;54.40
15574;DHT22;7888;46.748;8.102;2022-09-02T06:50:44;20.20;54.30
15574;DHT22;7888;46.748;8.102;2022-09-02T06:53:11;20.20;54.50
15574;DHT22;7888;46.748;8.102;2022-09-02T06:55:40;20.30;54.30
15574;DHT22;7888;46.748;8.102;2022-09-02T06:58:09;20.30;54.40
15574;DHT22;7888;46.748;8.102;2022-09-02T07:00:35;20.40;54.50
15574;DHT22;7888;46.748;8.102;2022-09-02T07:03:03;20.50;54.70
15574;DHT22;7888;46.748;8.102;2022-09-02T07:06:21;20.60;54.60
15574;DHT22;7888;46.748;8.102;2022-09-02T07:08:47;20.70;54.60
15574;DHT22;7888;46.748;8.102;2022-09-02T07:11:21;20.80;54.40
15574;DHT22;7888;46.748;8.102;2022-09-02T07:13:49;20.80;54.40
15574;DHT22;7888;46.748;8.102;2022-09-02T07:16:16;20.90;54.30
15574;DHT22;7888;46.748;8.102;2022-09-02T07:18:43;21.00;54.30
15574;DHT22;7888;46.748;8.102;2022-09-02T07:21:12;21.00;54.10
15574;DHT22;7888;46.748;8.102;2022-09-02T07:23:38;21.10;53.80
15574;DHT22;7888;46.748;8.102;2022-09-02T07:26:11;21.20;53.80
15574;DHT22;7888;46.748;8.102;2022-09-02T07:28:38;21.30;53.70
15574;DHT22;7888;46.748;8.102;2022-09-02T07:31:09;21.40;53.60
15574;DHT22;7888;46.748;8.102;2022-09-02T07:33:36;21.50;53.20
15574;DHT22;7888;46.748;8.102;2022-09-02T07:36:06;21.60;53.20
15574;DHT22;7888;46.748;8.102;2022-09-02T07:38:35;21.70;52.90
15574;DHT22;7888;46.748;8.102;2022-09-02T07:41:01;21.80;53.00
15574;DHT22;7888;46.748;8.102;2022-09-02T07:43:30;21.90;52.80
15574;DHT22;7888;46.748;8.102;2022-09-02T07:45:58;22.00;52.70
15574;DHT22;7888;46.748;8.102;2022-09-02T07:48:26;22.10;52.60
15574;DHT22;7888;46.748;8.102;2022-09-02T07:50:53;22.20;52.60
15574;DHT22;7888;46.748;8.102;2022-09-02T07:53:20;22.30;52.40
15574;DHT22;7888;46.748;8.102;2022-09-02T07:55:46;22.30;52.30
15574;DHT22;7888;46.748;8.102;2022-09-02T07:58:13;22.50;52.20
15574;DHT22;7888;46.748;8.102;2022-09-02T08:00:42;22.50;51.90
15574;DHT22;7888;46.748;8.102;2022-09-02T08:03:09;22.60;51.70
15574;DHT22;7888;46.748;8.102;2022-09-02T08:05:36;22.80;51.60
15574;DHT22;7888;46.748;8.102;2022-09-02T08:08:03;22.80;51.30
15574;DHT22;7888;46.748;8.102;2022-09-02T08:10:31;22.90;51.30
15574;DHT22;7888;46.748;8.102;2022-09-02T08:12:58;23.00;51.20
15574;DHT22;7888;46.748;8.102;2022-09-02T08:15:25;23.10;51.20
15574;DHT22;7888;46.748;8.102;2022-09-02T08:17:54;23.20;51.20
15574;DHT22;7888;46.748;8.102;2022-09-02T08:20:21;23.30;51.20
15574;DHT22;7888;46.748;8.102;2022-09-02T08:22:47;23.40;50.90
15574;DHT22;7888;46.748;8.102;2022-09-02T08:25:13;23.50;50.90
15574;DHT22;7888;46.748;8.102;2022-09-02T08:27:39;23.60;50.70
15574;DHT22;7888;46.748;8.102;2022-09-02T08:30:07;23.70;50.60
15574;DHT22;7888;46.748;8.102;2022-09-02T08:32:37;23.80;50.40
15574;DHT22;7888;46.748;8.102;2022-09-02T08:35:05;23.80;50.50
15574;DHT22;7888;46.748;8.102;2022-09-02T08:37:33;23.90;50.40
15574;DHT22;7888;46.748;8.102;2022-09-02T08:40:01;24.00;50.40
15574;DHT22;7888;46.748;8.102;2022-09-02T08:42:36;24.10;50.30
15574;DHT22;7888;46.748;8.102;2022-09-02T08:45:31;24.20;50.00
15574;DHT22;7888;46.748;8.102;2022-09-02T08:50:57;24.50;50.00
15574;DHT22;7888;46.748;8.102;2022-09-02T08:53:48;24.60;49.60
15574;DHT22;7888;46.748;8.102;2022-09-02T08:56:19;24.80;49.20
15574;DHT22;7888;46.748;8.102;2022-09-02T08:58:49;24.90;49.40
15574;DHT22;7888;46.748;8.102;2022-09-02T09:01:36;25.00;49.00
15574;DHT22;7888;46.748;8.102;2022-09-02T09:04:22;25.10;48.80
15574;DHT22;7888;46.748;8.102;2022-09-02T09:13:17;25.50;48.30
15574;DHT22;7888;46.748;8.102;2022-09-02T09:22:18;25.90;47.50
15574;DHT22;7888;46.748;8.102;2022-09-02T09:24:48;26.00;47.30
15574;DHT22;7888;46.748;8.102;2022-09-02T09:27:17;26.10;47.40
15574;DHT22;7888;46.748;8.102;2022-09-02T09:29:45;26.20;47.60
15574;DHT22;7888;46.748;8.102;2022-09-02T09:32:25;26.30;47.40
15574;DHT22;7888;46.748;8.102;2022-09-02T09:35:10;26.40;46.70
15574;DHT22;7888;46.748;8.102;2022-09-02T09:37:41;26.50;46.50
15574;DHT22;7888;46.748;8.102;2022-09-02T09:42:46;26.70;46.10
15574;DHT22;7888;46.748;8.102;2022-09-02T09:45:26;26.80;46.20
15574;DHT22;7888;46.748;8.102;2022-09-02T09:48:17;26.80;45.70
15574;DHT22;7888;46.748;8.102;2022-09-02T09:53:28;27.00;45.90
15574;DHT22;7888;46.748;8.102;2022-09-02T10:01:32;27.20;45.20
15574;DHT22;7888;46.748;8.102;2022-09-02T10:04:01;27.30;44.60
15574;DHT22;7888;46.748;8.102;2022-09-02T10:11:39;27.40;44.20
15574;DHT22;7888;46.748;8.102;2022-09-02T10:14:23;27.50;44.70
15574;DHT22;7888;46.748;8.102;2022-09-02T10:19:59;27.60;44.60
15574;DHT22;7888;46.748;8.102;2022-09-02T10:23:03;27.70;44.10
15574;DHT22;7888;46.748;8.102;2022-09-02T10:25:54;27.80;43.80
15574;DHT22;7888;46.748;8.102;2022-09-02T10:32:18;28.00;43.90
15574;DHT22;7888;46.748;8.102;2022-09-02T10:37:30;28.00;43.60
15574;DHT22;7888;46.748;8.102;2022-09-02T10:40:15;28.10;43.10
15574;DHT22;7888;46.748;8.102;2022-09-02T10:42:58;28.10;43.00
15574;DHT22;7888;46.748;8.102;2022-09-02T10:45:45;28.20;43.40
15574;DHT22;7888;46.748;8.102;2022-09-02T10:54:23;28.40;42.40
15574;DHT22;7888;46.748;8.102;2022-09-02T10:57:14;28.50;42.80
15574;DHT22;7888;46.748;8.102;2022-09-02T11:05:22;28.70;42.40
15574;DHT22;7888;46.748;8.102;2022-09-02T11:07:56;28.80;42.70
15574;DHT22;7888;46.748;8.102;2022-09-02T11:10:37;28.80;42.10
15574;DHT22;7888;46.748;8.102;2022-09-02T11:13:23;28.90;41.80
15574;DHT22;7888;46.748;8.102;2022-09-02T11:16:02;29.00;42.20
15574;DHT22;7888;46.748;8.102;2022-09-02T11:24:39;29.20;41.50
15574;DHT22;7888;46.748;8.102;2022-09-02T11:27:33;29.20;41.50
15574;DHT22;7888;46.748;8.102;2022-09-02T11:30:14;29.20;40.90
15574;DHT22;7888;46.748;8.102;2022-09-02T11:32:52;29.30;41.50
15574;DHT22;7888;46.748;8.102;2022-09-02T11:35:33;29.30;41.20
15574;DHT22;7888;46.748;8.102;2022-09-02T11:38:10;29.40;40.90
15574;DHT22;7888;46.748;8.102;2022-09-02T11:56:56;29.50;40.40
15574;DHT22;7888;46.748;8.102;2022-09-02T11:59:07;29.50;40.40
15574;DHT22;7888;46.748;8.102;2022-09-02T12:01:50;29.60;41.00
15574;DHT22;7888;46.748;8.102;2022-09-02T12:04:21;29.70;40.60
15574;DHT22;7888;46.748;8.102;2022-09-02T12:09:51;29.80;40.40
15574;DHT22;7888;46.748;8.102;2022-09-02T12:20:09;29.90;40.30
15574;DHT22;7888;46.748;8.102;2022-09-02T12:22:55;29.90;40.00
15574;DHT22;7888;46.748;8.102;2022-09-02T12:33:41;30.00;39.80
15574;DHT22;7888;46.748;8.102;2022-09-02T12:48:27;29.90;39.20
15574;DHT22;7888;46.748;8.102;2022-09-02T12:58:37;29.70;38.90
15574;DHT22;7888;46.748;8.102;2022-09-02T13:01:21;29.60;38.80
15574;DHT22;7888;46.748;8.102;2022-09-02T13:21:23;29.80;39.30
15574;DHT22;7888;46.748;8.102;2022-09-02T13:27:18;29.70;39.10
15574;DHT22;7888;46.748;8.102;2022-09-02T13:30:09;29.70;39.30
15574;DHT22;7888;46.748;8.102;2022-09-02T13:32:39;29.60;38.80
15574;DHT22;7888;46.748;8.102;2022-09-02T13:35:08;29.60;39.40
15574;DHT22;7888;46.748;8.102;2022-09-02T13:37:42;29.60;39.50
15574;DHT22;7888;46.748;8.102;2022-09-02T13:40:19;29.60;39.50
15574;DHT22;7888;46.748;8.102;2022-09-02T13:43:19;29.50;39.40
15574;DHT22;7888;46.748;8.102;2022-09-02T13:45:48;29.50;39.30
15574;DHT22;7888;46.748;8.102;2022-09-02T13:48:16;29.50;39.40
15574;DHT22;7888;46.748;8.102;2022-09-02T13:50:48;29.50;39.40
15574;DHT22;7888;46.748;8.102;2022-09-02T13:53:41;29.50;39.20
15574;DHT22;7888;46.748;8.102;2022-09-02T13:56:11;29.50;39.10
15574;DHT22;7888;46.748;8.102;2022-09-02T13:58:44;29.40;39.50
15574;DHT22;7888;46.748;8.102;2022-09-02T14:03:56;29.40;39.10
15574;DHT22;7888;46.748;8.102;2022-09-02T14:06:34;29.40;38.70
15574;DHT22;7888;46.748;8.102;2022-09-02T14:09:06;29.40;38.70
15574;DHT22;7888;46.748;8.102;2022-09-02T14:11:43;29.30;38.70
15574;DHT22;7888;46.748;8.102;2022-09-02T14:14:15;29.30;39.00
15574;DHT22;7888;46.748;8.102;2022-09-02T14:16:43;29.30;38.70
15574;DHT22;7888;46.748;8.102;2022-09-02T14:21:54;29.20;38.70
15574;DHT22;7888;46.748;8.102;2022-09-02T14:24:24;29.20;38.70
15574;DHT22;7888;46.748;8.102;2022-09-02T14:26:59;29.10;38.80
15574;DHT22;7888;46.748;8.102;2022-09-02T14:29:27;29.00;38.90
15574;DHT22;7888;46.748;8.102;2022-09-02T14:34:47;28.90;39.40
15574;DHT22;7888;46.748;8.102;2022-09-02T14:37:31;28.80;39.60
15574;DHT22;7888;46.748;8.102;2022-09-02T14:43:00;28.70;39.70
15574;DHT22;7888;46.748;8.102;2022-09-02T14:45:29;28.50;39.40
15574;DHT22;7888;46.748;8.102;2022-09-02T14:47:59;28.40;39.70
15574;DHT22;7888;46.748;8.102;2022-09-02T14:50:34;28.10;39.90
15574;DHT22;7888;46.748;8.102;2022-09-02T14:53:09;27.90;40.30
15574;DHT22;7888;46.748;8.102;2022-09-02T14:55:53;27.50;40.60
15574;DHT22;7888;46.748;8.102;2022-09-02T14:58:24;27.10;41.00
15574;DHT22;7888;46.748;8.102;2022-09-02T15:00:53;26.80;41.00
15574;DHT22;7888;46.748;8.102;2022-09-02T15:03:21;26.40;41.70
15574;DHT22;7888;46.748;8.102;2022-09-02T15:05:48;26.10;42.00
15574;DHT22;7888;46.748;8.102;2022-09-02T15:08:15;25.80;42.60
15574;DHT22;7888;46.748;8.102;2022-09-02T15:10:42;25.60;43.30
15574;DHT22;7888;46.748;8.102;2022-09-02T15:13:12;25.40;43.10
15574;DHT22;7888;46.748;8.102;2022-09-02T15:15:59;25.20;44.10
15574;DHT22;7888;46.748;8.102;2022-09-02T15:18:26;25.10;44.40
15574;DHT22;7888;46.748;8.102;2022-09-02T15:20:52;25.00;44.50
15574;DHT22;7888;46.748;8.102;2022-09-02T15:23:19;24.90;45.00
15574;DHT22;7888;46.748;8.102;2022-09-02T15:25:44;24.90;45.00
15574;DHT22;7888;46.748;8.102;2022-09-02T15:28:10;24.90;45.50
15574;DHT22;7888;46.748;8.102;2022-09-02T15:30:37;24.80;45.80
15574;DHT22;7888;46.748;8.102;2022-09-02T15:33:05;24.70;45.30
15574;DHT22;7888;46.748;8.102;2022-09-02T15:35:33;24.70;45.50
15574;DHT22;7888;46.748;8.102;2022-09-02T15:38:03;24.60;45.70
15574;DHT22;7888;46.748;8.102;2022-09-02T15:40:29;24.40;45.60
15574;DHT22;7888;46.748;8.102;2022-09-02T15:42:56;24.30;45.90
15574;DHT22;7888;46.748;8.102;2022-09-02T15:45:23;24.20;46.00
15574;DHT22;7888;46.748;8.102;2022-09-02T15:47:49;24.10;46.50
15574;DHT22;7888;46.748;8.102;2022-09-02T15:50:14;24.00;46.80
15574;DHT22;7888;46.748;8.102;2022-09-02T15:52:40;23.80;46.80
15574;DHT22;7888;46.748;8.102;2022-09-02T15:55:06;23.80;47.00
15574;DHT22;7888;46.748;8.102;2022-09-02T15:57:32;23.70;47.30
15574;DHT22;7888;46.748;8.102;2022-09-02T15:59:58;23.70;47.50
15574;DHT22;7888;46.748;8.102;2022-09-02T16:02:24;23.60;47.30
15574;DHT22;7888;46.748;8.102;2022-09-02T16:04:50;23.50;47.40
15574;DHT22;7888;46.748;8.102;2022-09-02T16:07:16;23.40;47.20
15574;DHT22;7888;46.748;8.102;2022-09-02T16:09:42;23.40;47.60
15574;DHT22;7888;46.748;8.102;2022-09-02T16:12:07;23.30;47.60
15574;DHT22;7888;46.748;8.102;2022-09-02T16:14:34;23.30;47.80
15574;DHT22;7888;46.748;8.102;2022-09-02T16:17:00;23.20;48.00
15574;DHT22;7888;46.748;8.102;2022-09-02T16:19:26;23.20;47.80
15574;DHT22;7888;46.748;8.102;2022-09-02T16:21:53;23.20;47.80
15574;DHT22;7888;46.748;8.102;2022-09-02T16:24:19;23.20;47.90
15574;DHT22;7888;46.748;8.102;2022-09-02T16:26:47;23.20;47.70
15574;DHT22;7888;46.748;8.102;2022-09-02T16:29:15;23.20;48.00
15574;DHT22;7888;46.748;8.102;2022-09-02T16:31:44;23.20;48.50
15574;DHT22;7888;46.748;8.102;2022-09-02T16:34:17;23.20;49.10
15574;DHT22;7888;46.748;8.102;2022-09-02T16:36:47;23.20;49.00
15574;DHT22;7888;46.748;8.102;2022-09-02T16:39:17;23.20;49.10
15574;DHT22;7888;46.748;8.102;2022-09-02T16:41:51;23.20;49.40
15574;DHT22;7888;46.748;8.102;2022-09-02T16:44:21;23.20;49.90
15574;DHT22;7888;46.748;8.102;2022-09-02T16:46:50;23.10;49.80
15574;DHT22;7888;46.748;8.102;2022-09-02T16:49:18;23.10;49.70
15574;DHT22;7888;46.748;8.102;2022-09-02T16:51:48;23.10;50.00
15574;DHT22;7888;46.748;8.102;2022-09-02T16:54:16;23.10;50.10
15574;DHT22;7888;46.748;8.102;2022-09-02T16:56:44;23.10;49.80
15574;DHT22;7888;46.748;8.102;2022-09-02T16:59:11;23.00;49.50
15574;DHT22;7888;46.748;8.102;2022-09-02T17:01:37;23.00;49.90
15574;DHT22;7888;46.748;8.102;2022-09-02T17:04:05;23.00;50.00
15574;DHT22;7888;46.748;8.102;2022-09-02T17:06:32;23.00;50.10
15574;DHT22;7888;46.748;8.102;2022-09-02T17:08:58;23.00;50.30
15574;DHT22;7888;46.748;8.102;2022-09-02T17:11:27;23.00;50.50
15574;DHT22;7888;46.748;8.102;2022-09-02T17:14:01;23.00;50.90
15574;DHT22;7888;46.748;8.102;2022-09-02T17:16:54;23.10;50.80
15574;DHT22;7888;46.748;8.102;2022-09-02T17:19:20;23.00;50.90
15574;DHT22;7888;46.748;8.102;2022-09-02T17:21:51;23.00;50.70
15574;DHT22;7888;46.748;8.102;2022-09-02T17:24:24;23.00;51.40
15574;DHT22;7888;46.748;8.102;2022-09-02T17:26:54;23.00;51.00
15574;DHT22;7888;46.748;8.102;2022-09-02T17:29:22;23.00;50.90
15574;DHT22;7888;46.748;8.102;2022-09-02T17:31:49;22.90;51.00
15574;DHT22;7888;46.748;8.102;2022-09-02T17:34:15;22.90;51.20
15574;DHT22;7888;46.748;8.102;2022-09-02T17:36:41;22.90;51.20
15574;DHT22;7888;46.748;8.102;2022-09-02T17:39:10;22.90;51.40
15574;DHT22;7888;46.748;8.102;2022-09-02T17:41:41;22.80;51.40
15574;DHT22;7888;46.748;8.102;2022-09-02T17:44:30;22.80;51.30
15574;DHT22;7888;46.748;8.102;2022-09-02T17:47:12;22.80;51.50
15574;DHT22;7888;46.748;8.102;2022-09-02T17:49:39;22.80;51.60
15574;DHT22;7888;46.748;8.102;2022-09-02T17:52:10;22.80;51.80
15574;DHT22;7888;46.748;8.102;2022-09-02T17:54:39;22.70;51.90
15574;DHT22;7888;46.748;8.102;2022-09-02T18:11:09;22.50;52.40
15574;DHT22;7888;46.748;8.102;2022-09-02T18:13:52;22.40;52.20
15574;DHT22;7888;46.748;8.102;2022-09-02T18:22:28;22.00;53.10
15574;DHT22;7888;46.748;8.102;2022-09-02T18:24:42;21.90;53.20
15574;DHT22;7888;46.748;8.102;2022-09-02T18:30:11;21.80;53.40
15574;DHT22;7888;46.748;8.102;2022-09-02T18:36:05;21.70;53.10
15574;DHT22;7888;46.748;8.102;2022-09-02T18:39:10;21.70;53.00
15574;DHT22;7888;46.748;8.102;2022-09-02T18:45:28;21.70;52.60
15574;DHT22;7888;46.748;8.102;2022-09-02T18:48:07;21.70;52.10
15574;DHT22;7888;46.748;8.102;2022-09-02T18:50:40;21.70;52.30
15574;DHT22;7888;46.748;8.102;2022-09-02T18:53:12;21.70;52.20
15574;DHT22;7888;46.748;8.102;2022-09-02T18:55:41;21.70;51.90
15574;DHT22;7888;46.748;8.102;2022-09-02T18:58:55;21.70;51.60
15574;DHT22;7888;46.748;8.102;2022-09-02T19:03:47;21.70;51.70
15574;DHT22;7888;46.748;8.102;2022-09-02T19:06:19;21.70;52.20
15574;DHT22;7888;46.748;8.102;2022-09-02T19:08:47;21.60;52.70